Guatemala City, Guatemala
Current Conditions -  °F | °C
As of 6:00 PM on Monday 20 Oct 2014 (Local Time) from MGGT Reporting Station
Drizzle Drizzle  
Wind Chill: 66°   Ceiling: 1600
Heat Index: 66°   Visibility: 6mi
Dew Point: 64°   Wind: 9mph
Humidity: 94%   Direction: 180°S
Pressure: 30.12"   Gusts: NA
Location:  14.58°N, 90.52°W
Report Text: MGGT 210000Z 18008KT 9999 -DZ BKN016 BKN090 19/18 Q1020 A3018
Loading
Personal Weather Stations






























Interactive Weather Map
Tropical Storm Tracking
New forecast layout! Learn more

10-Day Weather Forecast

Advertisements
Track Severe Weather on mobile